createdAt,value
2023-03-20T00:00:10.608Z,7.52
2023-03-20T00:03:18.697Z,7.36
2023-03-20T00:05:53.802Z,7.32
2023-03-20T00:08:41.695Z,7.38
2023-03-20T00:11:48.696Z,7.46
2023-03-20T00:14:43.699Z,7.51
2023-03-20T00:17:38.697Z,7.53
2023-03-20T00:20:26.706Z,7.57
2023-03-20T00:23:00.865Z,7.59
2023-03-20T00:25:49.715Z,7.63
2023-03-20T00:28:40.742Z,7.67
2023-03-20T00:31:25.986Z,7.71
2023-03-20T00:34:15.710Z,7.77
2023-03-20T00:36:56.706Z,7.82
2023-03-20T00:39:44.698Z,7.88
2023-03-20T00:42:22.486Z,7.91
2023-03-20T00:45:10.677Z,7.92
2023-03-20T00:47:45.943Z,7.92
2023-03-20T00:50:39.683Z,7.90
2023-03-20T00:53:14.156Z,7.89
2023-03-20T00:56:01.693Z,7.90
2023-03-20T00:58:37.964Z,7.88
2023-03-20T01:01:26.697Z,7.89
2023-03-20T01:04:07.679Z,7.92
2023-03-20T01:06:49.851Z,7.97
2023-03-20T01:09:30.709Z,8.01
2023-03-20T01:12:19.725Z,7.97
2023-03-20T01:15:09.686Z,7.90
2023-03-20T01:17:57.701Z,7.73
2023-03-20T01:20:41.691Z,7.68
2023-03-20T01:23:36.693Z,7.73
2023-03-20T01:26:43.889Z,7.82
2023-03-20T01:29:36.670Z,7.92
2023-03-20T01:32:33.757Z,8.03
2023-03-20T01:35:23.684Z,8.11
2023-03-20T01:38:11.717Z,8.12
2023-03-20T01:40:58.539Z,8.05
2023-03-20T01:43:47.701Z,7.72
2023-03-20T01:46:34.687Z,7.32
2023-03-20T01:49:28.518Z,6.90
2023-03-20T01:52:09.691Z,6.52
2023-03-20T01:55:04.699Z,6.29
2023-03-20T01:57:52.691Z,6.09
2023-03-20T02:00:34.672Z,5.86
2023-03-20T02:03:29.900Z,5.66
2023-03-20T02:06:18.885Z,5.49
2023-03-20T02:09:02.666Z,5.28
2023-03-20T02:11:59.892Z,5.09
2023-03-20T02:14:47.784Z,4.98
2023-03-20T02:17:42.886Z,4.88
2023-03-20T02:20:53.666Z,4.82
2023-03-20T02:23:56.892Z,4.84
2023-03-20T02:27:03.776Z,4.94
2023-03-20T02:30:19.934Z,5.04
2023-03-20T02:33:31.683Z,5.20
2023-03-20T02:36:21.683Z,5.36
2023-03-20T02:39:46.679Z,5.50
2023-03-20T02:42:42.703Z,5.59
2023-03-20T02:45:50.080Z,5.60
2023-03-20T02:49:02.752Z,5.57
2023-03-20T02:52:00.796Z,5.50
2023-03-20T02:54:59.663Z,5.41
2023-03-20T02:58:04.685Z,5.36
2023-03-20T03:01:04.661Z,5.36
2023-03-20T03:03:56.680Z,5.38
2023-03-20T03:06:41.662Z,5.41
2023-03-20T03:09:34.679Z,5.38
2023-03-20T03:12:10.838Z,5.34
2023-03-20T03:15:08.683Z,5.30
2023-03-20T03:17:56.687Z,5.30
2023-03-20T03:20:42.799Z,5.30
2023-03-20T03:23:38.682Z,5.31
2023-03-20T03:26:25.004Z,5.35
2023-03-20T03:29:13.680Z,5.37
2023-03-20T03:31:56.727Z,5.37
2023-03-20T03:34:39.680Z,5.33
2023-03-20T03:37:34.663Z,5.22
2023-03-20T03:40:17.837Z,5.09
2023-03-20T03:43:17.676Z,4.97
2023-03-20T03:46:12.751Z,4.89
2023-03-20T03:48:58.862Z,4.86
2023-03-20T03:51:42.654Z,4.88
2023-03-20T03:54:33.813Z,4.89
2023-03-20T03:57:15.669Z,4.90
2023-03-20T03:59:58.819Z,4.88
2023-03-20T04:02:48.673Z,4.88
2023-03-20T04:05:32.691Z,4.92
2023-03-20T04:08:28.693Z,4.95
2023-03-20T04:11:26.868Z,5.01
2023-03-20T04:14:15.676Z,5.02
2023-03-20T04:16:56.655Z,5.04
2023-03-20T04:19:44.657Z,5.00
2023-03-20T04:22:19.252Z,4.93
2023-03-20T04:25:06.665Z,4.92
2023-03-20T04:27:41.084Z,4.92
2023-03-20T04:30:28.668Z,4.91
2023-03-20T04:33:03.145Z,4.85
2023-03-20T04:35:50.734Z,4.83
2023-03-20T04:38:31.656Z,4.82
2023-03-20T04:41:13.824Z,4.82
2023-03-20T04:43:54.654Z,4.81
2023-03-20T04:46:35.948Z,4.79
2023-03-20T04:49:17.659Z,4.76
2023-03-20T04:51:58.836Z,4.77
2023-03-20T04:54:39.679Z,4.81
2023-03-20T04:57:20.864Z,4.81
2023-03-20T05:00:01.674Z,4.76
2023-03-20T05:02:42.958Z,4.73
2023-03-20T05:05:30.857Z,4.72
2023-03-20T05:08:05.836Z,4.75
2023-03-20T05:10:53.870Z,4.78
2023-03-20T05:13:29.348Z,4.85
2023-03-20T05:16:24.698Z,4.94
2023-03-20T05:19:20.153Z,5.08
2023-03-20T05:22:07.666Z,5.21
2023-03-20T05:24:55.659Z,5.33
2023-03-20T05:27:30.057Z,5.47
2023-03-20T05:30:18.848Z,5.62
2023-03-20T05:32:54.260Z,5.74
2023-03-20T05:35:43.864Z,5.83
2023-03-20T05:38:22.989Z,5.90
2023-03-20T05:41:12.649Z,5.97
2023-03-20T05:43:47.245Z,6.02
2023-03-20T05:46:35.716Z,6.07
2023-03-20T05:49:11.555Z,6.16
2023-03-20T05:52:00.919Z,6.26
2023-03-20T05:54:36.247Z,6.36
2023-03-20T05:57:24.698Z,6.47
2023-03-20T06:00:05.676Z,6.58
2023-03-20T06:02:47.710Z,6.70
2023-03-20T06:05:28.663Z,6.78
2023-03-20T06:08:10.778Z,6.93
2023-03-20T06:10:51.675Z,7.06
2023-03-20T06:13:39.647Z,7.18
2023-03-20T06:16:27.733Z,7.29
2023-03-20T06:19:15.663Z,7.39
2023-03-20T06:21:57.645Z,7.47
2023-03-20T06:24:52.656Z,7.54
2023-03-20T06:27:40.668Z,7.60
2023-03-20T06:30:15.780Z,7.63
2023-03-20T06:33:05.707Z,7.68
2023-03-20T06:35:47.696Z,7.75
2023-03-20T06:38:42.853Z,7.84
2023-03-20T06:41:34.728Z,7.94
2023-03-20T06:44:17.854Z,8.03
2023-03-20T06:47:05.657Z,8.12
2023-03-20T06:49:40.762Z,8.23
2023-03-20T06:52:29.677Z,8.34
2023-03-20T06:55:04.761Z,8.43
2023-03-20T06:57:52.640Z,8.50
2023-03-20T07:00:34.632Z,8.56
2023-03-20T07:03:29.648Z,8.63
2023-03-20T07:06:18.635Z,8.75
2023-03-20T07:08:53.816Z,8.85
2023-03-20T07:11:42.647Z,9.00
2023-03-20T07:14:17.769Z,9.21
2023-03-20T07:17:05.639Z,9.46
2023-03-20T07:19:39.773Z,9.72
2023-03-20T07:22:35.652Z,9.99
2023-03-20T07:25:10.956Z,10.22
2023-03-20T07:27:59.679Z,10.49
2023-03-20T07:30:34.922Z,10.77
2023-03-20T07:33:22.870Z,11.01
2023-03-20T07:36:01.837Z,11.25
2023-03-20T07:38:49.646Z,11.46
2023-03-20T07:41:24.797Z,11.72
2023-03-20T07:44:14.642Z,11.93
2023-03-20T07:46:49.767Z,12.16
2023-03-20T07:49:37.638Z,12.44
2023-03-20T07:52:25.849Z,12.69
2023-03-20T07:55:01.076Z,12.87
2023-03-20T07:57:48.644Z,13.01
2023-03-20T08:00:29.668Z,13.17
2023-03-20T08:03:17.897Z,13.33
2023-03-20T08:05:54.220Z,13.46
2023-03-20T08:08:42.844Z,13.62
2023-03-20T08:11:27.139Z,13.78
2023-03-20T08:14:14.607Z,13.92
2023-03-20T08:17:10.645Z,14.04
2023-03-20T08:19:54.756Z,14.14
2023-03-20T08:22:35.648Z,14.26
2023-03-20T08:25:24.648Z,14.43
2023-03-20T08:28:12.655Z,14.59
2023-03-20T08:30:54.672Z,14.77
2023-03-20T08:33:49.614Z,14.91
2023-03-20T08:36:37.727Z,15.07
2023-03-20T08:39:12.786Z,15.25
2023-03-20T08:42:01.299Z,15.56
2023-03-20T08:44:42.637Z,15.84
2023-03-20T08:47:40.174Z,16.16
2023-03-20T08:50:28.685Z,16.56
2023-03-20T08:53:10.691Z,16.82
2023-03-20T08:56:06.641Z,16.90
2023-03-20T08:58:55.948Z,16.85
2023-03-20T09:01:47.963Z,16.83
2023-03-20T09:04:36.623Z,16.85
2023-03-20T09:07:12.113Z,16.97
2023-03-20T09:09:59.644Z,17.12
2023-03-20T09:12:34.849Z,17.21
2023-03-20T09:15:22.664Z,17.34
2023-03-20T09:18:17.638Z,17.38
2023-03-20T09:21:12.647Z,17.34
2023-03-20T09:23:54.029Z,17.23
2023-03-20T09:26:42.646Z,17.10
2023-03-20T09:29:24.652Z,16.96
2023-03-20T09:32:05.778Z,16.84
2023-03-20T09:34:46.634Z,16.71
2023-03-20T09:37:34.648Z,16.59
2023-03-20T09:40:19.640Z,16.50
2023-03-20T09:43:30.622Z,16.49
2023-03-20T09:46:34.047Z,16.40
2023-03-20T09:49:46.626Z,16.30
2023-03-20T09:52:28.059Z,16.40
2023-03-20T09:55:30.645Z,16.57
2023-03-20T09:58:27.846Z,16.71
2023-03-20T10:01:18.784Z,16.86
2023-03-20T10:04:08.720Z,17.02
2023-03-20T10:06:56.643Z,17.25
2023-03-20T10:09:32.068Z,17.29
2023-03-20T10:12:41.642Z,17.40
2023-03-20T10:15:25.626Z,17.59
2023-03-20T10:18:23.633Z,17.84
2023-03-20T10:21:20.636Z,18.15
2023-03-20T10:24:13.611Z,18.24
2023-03-20T10:26:48.071Z,18.29
2023-03-20T10:29:44.630Z,18.43
2023-03-20T10:32:52.799Z,18.57
2023-03-20T10:35:46.702Z,18.60
2023-03-20T10:38:39.759Z,18.54
2023-03-20T10:41:31.631Z,18.37
2023-03-20T10:44:08.405Z,18.29
2023-03-20T10:46:59.667Z,18.31
2023-03-20T10:49:51.774Z,18.36
2023-03-20T10:52:42.643Z,18.35
2023-03-20T10:55:23.761Z,18.37
2023-03-20T10:58:30.858Z,18.29
2023-03-20T11:01:07.016Z,18.19
2023-03-20T11:03:54.733Z,18.12
2023-03-20T11:06:33.761Z,18.07
2023-03-20T11:09:30.839Z,18.09
2023-03-20T11:12:08.938Z,18.24
2023-03-20T11:14:56.635Z,18.47
2023-03-20T11:17:42.682Z,18.73
2023-03-20T11:20:38.633Z,18.94
2023-03-20T11:23:33.652Z,19.07
2023-03-20T11:26:21.641Z,19.13
2023-03-20T11:29:20.828Z,19.23
2023-03-20T11:32:14.902Z,19.19
2023-03-20T11:34:49.941Z,18.96
2023-03-20T11:37:41.631Z,18.61
2023-03-20T11:40:32.774Z,18.36
2023-03-20T11:43:19.661Z,18.12
2023-03-20T11:46:12.652Z,17.80
2023-03-20T11:48:47.548Z,17.62
2023-03-20T11:51:35.816Z,17.44
2023-03-20T11:54:24.778Z,17.20
2023-03-20T11:57:07.903Z,16.90
2023-03-20T11:59:55.634Z,16.64
2023-03-20T12:02:32.563Z,16.39
2023-03-20T12:05:39.652Z,16.17
2023-03-20T12:08:21.634Z,15.87
2023-03-20T12:11:31.649Z,15.59
2023-03-20T12:14:13.621Z,15.32
2023-03-20T12:17:22.651Z,15.08
2023-03-20T12:20:38.889Z,14.83
2023-03-20T12:23:36.851Z,14.58
2023-03-20T12:26:39.843Z,14.39
2023-03-20T12:29:38.839Z,14.26
2023-03-20T12:32:38.679Z,14.21
2023-03-20T12:35:29.716Z,14.24
2023-03-20T12:38:11.628Z,14.36
2023-03-20T12:41:03.635Z,14.54
2023-03-20T12:43:57.648Z,14.75
2023-03-20T12:47:06.629Z,14.94
2023-03-20T12:50:03.650Z,15.09
2023-03-20T12:53:05.634Z,15.23
2023-03-20T12:56:19.630Z,15.41
2023-03-20T12:59:22.634Z,15.56
2023-03-20T13:02:03.828Z,15.69
2023-03-20T13:05:55.635Z,15.79
2023-03-20T13:08:55.647Z,15.82
2023-03-20T13:11:41.628Z,15.82
2023-03-20T13:14:55.796Z,15.82
2023-03-20T13:18:08.622Z,15.93
2023-03-20T13:21:05.630Z,16.15
2023-03-20T13:24:10.423Z,16.36
2023-03-20T13:27:09.646Z,16.55
2023-03-20T13:29:55.999Z,16.78
2023-03-20T13:32:46.894Z,17.02
2023-03-20T13:35:31.436Z,17.41
2023-03-20T13:38:33.659Z,18.39
2023-03-20T13:41:09.951Z,19.04
2023-03-20T13:44:15.779Z,18.63
2023-03-20T13:46:54.755Z,18.30
2023-03-20T13:50:03.650Z,18.01
2023-03-20T13:53:09.320Z,17.63
2023-03-20T13:56:19.673Z,17.14
2023-03-20T13:59:20.627Z,16.79
2023-03-20T14:02:14.835Z,16.67
2023-03-20T14:05:25.665Z,16.61
2023-03-20T14:08:30.534Z,16.67
2023-03-20T14:11:24.638Z,16.69
2023-03-20T14:14:05.120Z,16.63
2023-03-20T14:16:52.620Z,16.47
2023-03-20T14:19:36.416Z,16.25
2023-03-20T14:22:30.657Z,16.06
2023-03-20T14:25:13.118Z,15.91
2023-03-20T14:28:12.812Z,15.69
2023-03-20T14:30:51.444Z,15.46
2023-03-20T14:33:42.622Z,15.27
2023-03-20T14:36:23.192Z,15.11
2023-03-20T14:39:20.656Z,14.95
2023-03-20T14:42:15.248Z,14.82
2023-03-20T14:45:27.630Z,14.69
2023-03-20T14:48:08.117Z,14.55
2023-03-20T14:51:33.662Z,14.43
2023-03-20T14:54:33.625Z,14.29
2023-03-20T14:57:17.767Z,14.11
2023-03-20T14:59:58.631Z,13.96
2023-03-20T15:02:50.619Z,13.81
2023-03-20T15:05:29.487Z,13.70
2023-03-20T15:08:19.619Z,13.60
2023-03-20T15:10:56.631Z,13.56
2023-03-20T15:13:44.630Z,13.54
2023-03-20T15:16:40.624Z,13.53
2023-03-20T15:19:28.639Z,13.52
2023-03-20T15:22:09.746Z,13.51
2023-03-20T15:24:58.643Z,13.49
2023-03-20T15:27:46.669Z,13.49
2023-03-20T15:30:23.720Z,13.50
2023-03-20T15:33:12.720Z,13.49
2023-03-20T15:35:47.085Z,13.47
2023-03-20T15:38:35.631Z,13.42
2023-03-20T15:41:26.407Z,13.37
2023-03-20T15:44:28.642Z,13.31
2023-03-20T15:47:17.576Z,13.23
2023-03-20T15:50:09.666Z,13.16
2023-03-20T15:52:53.209Z,13.14
2023-03-20T15:55:43.780Z,13.14
2023-03-20T15:58:24.788Z,13.13
2023-03-20T16:01:09.925Z,13.11
2023-03-20T16:03:53.644Z,13.08
2023-03-20T16:06:34.842Z,13.02
2023-03-20T16:09:21.612Z,12.98
2023-03-20T16:12:15.646Z,12.94
2023-03-20T16:14:57.649Z,12.88
2023-03-20T16:17:52.686Z,12.84
2023-03-20T16:20:52.625Z,12.81
2023-03-20T16:23:43.639Z,12.79
2023-03-20T16:26:28.829Z,12.80
2023-03-20T16:29:20.637Z,12.81
2023-03-20T16:32:08.770Z,12.80
2023-03-20T16:34:57.621Z,12.78
2023-03-20T16:37:38.798Z,12.75
2023-03-20T16:40:44.691Z,12.70
2023-03-20T16:43:29.366Z,12.65
2023-03-20T16:46:25.816Z,12.57
2023-03-20T16:49:35.758Z,12.50
2023-03-20T16:52:23.619Z,12.41
2023-03-20T16:54:58.814Z,12.37
2023-03-20T16:57:47.148Z,12.35
2023-03-20T17:00:38.136Z,12.32
2023-03-20T17:03:39.623Z,12.26
2023-03-20T17:06:28.684Z,12.20
2023-03-20T17:09:08.761Z,12.14
2023-03-20T17:12:03.658Z,12.07
2023-03-20T17:14:40.589Z,11.99
2023-03-20T17:17:35.615Z,11.93
2023-03-20T17:20:39.617Z,11.87
2023-03-20T17:23:30.624Z,11.85
2023-03-20T17:26:05.903Z,11.86
2023-03-20T17:28:53.630Z,11.85
2023-03-20T17:31:35.661Z,11.83
2023-03-20T17:34:30.795Z,11.81
2023-03-20T17:37:22.609Z,11.80
2023-03-20T17:40:00.634Z,11.78
2023-03-20T17:42:49.705Z,11.75
2023-03-20T17:45:25.257Z,11.72
2023-03-20T17:48:15.637Z,11.72
2023-03-20T17:50:51.848Z,11.72
2023-03-20T17:53:39.621Z,11.71
2023-03-20T17:56:29.429Z,11.68
2023-03-20T17:59:28.626Z,11.65
2023-03-20T18:02:17.652Z,11.61
2023-03-20T18:05:06.699Z,11.57
2023-03-20T18:07:42.403Z,11.52
2023-03-20T18:11:05.801Z,11.48
2023-03-20T18:14:01.650Z,11.45
2023-03-20T18:16:56.622Z,11.40
2023-03-20T18:19:46.780Z,11.34
2023-03-20T18:22:21.757Z,11.30
2023-03-20T18:25:10.154Z,11.25
2023-03-20T18:27:44.778Z,11.19
2023-03-20T18:30:37.062Z,11.13
2023-03-20T18:33:11.894Z,11.07
2023-03-20T18:36:00.712Z,11.02
2023-03-20T18:38:42.617Z,10.98
2023-03-20T18:41:37.812Z,10.94
2023-03-20T18:44:33.423Z,10.89
2023-03-20T18:47:26.875Z,10.85
2023-03-20T18:50:03.520Z,10.80
2023-03-20T18:53:09.084Z,10.74
2023-03-20T18:56:33.158Z,10.72
2023-03-20T18:59:26.665Z,10.71
2023-03-20T19:02:08.682Z,10.71
2023-03-20T19:04:56.459Z,10.69
2023-03-20T19:07:37.623Z,10.67
2023-03-20T19:10:52.790Z,10.66
2023-03-20T19:13:31.375Z,10.68
2023-03-20T19:16:47.622Z,10.74
2023-03-20T19:19:36.634Z,10.81
2023-03-20T19:22:29.530Z,10.85
2023-03-20T19:25:17.634Z,10.86
2023-03-20T19:27:52.904Z,10.88
2023-03-20T19:30:46.669Z,10.88
2023-03-20T19:33:28.846Z,10.87
2023-03-20T19:36:43.901Z,10.87
2023-03-20T19:39:31.624Z,10.86
2023-03-20T19:42:45.301Z,10.85
2023-03-20T19:45:21.725Z,10.84
2023-03-20T19:48:03.214Z,10.83
2023-03-20T19:50:46.372Z,10.81
2023-03-20T19:53:36.610Z,10.78
2023-03-20T19:56:34.616Z,10.78
2023-03-20T19:59:23.194Z,10.78
2023-03-20T20:01:58.748Z,10.78
2023-03-20T20:04:46.629Z,10.76
2023-03-20T20:10:31.645Z,10.73
2023-03-20T20:13:06.754Z,10.72
2023-03-20T20:15:55.743Z,10.72
2023-03-20T20:18:32.902Z,10.72
2023-03-20T20:22:09.687Z,10.71
2023-03-20T20:24:16.456Z,10.68
2023-03-20T20:27:16.274Z,10.65
2023-03-20T20:29:54.763Z,10.61
2023-03-20T20:32:43.686Z,10.56
2023-03-20T20:36:07.412Z,10.51
2023-03-20T20:38:49.305Z,10.50
2023-03-20T20:41:28.718Z,10.49
2023-03-20T20:44:17.909Z,10.50
2023-03-20T20:46:52.780Z,10.53
2023-03-20T20:49:40.617Z,10.53
2023-03-20T20:52:22.631Z,10.53
2023-03-20T20:55:21.672Z,10.54
2023-03-20T20:58:10.853Z,10.53
2023-03-20T21:00:52.562Z,10.53
2023-03-20T21:03:41.929Z,10.54
2023-03-20T21:06:17.023Z,10.55
2023-03-20T21:09:04.802Z,10.55
2023-03-20T21:11:46.639Z,10.57
2023-03-20T21:14:27.736Z,10.57
2023-03-20T21:17:08.640Z,10.57
2023-03-20T21:19:49.746Z,10.57
2023-03-20T21:22:31.789Z,10.54
2023-03-20T21:25:38.286Z,10.49
2023-03-20T21:28:14.713Z,10.47
2023-03-20T21:31:23.259Z,10.45
2023-03-20T21:33:57.026Z,10.44
2023-03-20T21:36:44.600Z,10.36
2023-03-20T21:39:25.605Z,10.27
2023-03-20T21:42:13.617Z,10.14
2023-03-20T21:45:44.675Z,10.07
2023-03-20T21:51:49.400Z,10.14
2023-03-20T21:54:51.131Z,10.21
2023-03-20T22:03:10.440Z,10.38
2023-03-20T22:06:38.695Z,10.38
2023-03-20T22:15:39.421Z,10.36
2023-03-20T22:19:14.406Z,10.34
2023-03-20T22:22:00.217Z,10.31
2023-03-20T22:25:18.496Z,10.28
2023-03-20T22:28:02.647Z,10.29
2023-03-20T22:34:20.163Z,10.29
2023-03-20T22:42:54.086Z,10.27
2023-03-20T22:45:47.116Z,10.29
2023-03-20T22:48:22.660Z,10.31
2023-03-20T22:51:10.741Z,10.32
2023-03-20T22:53:45.064Z,10.31
2023-03-20T22:56:32.626Z,10.28
2023-03-20T22:59:07.100Z,10.25
2023-03-20T23:01:54.604Z,10.21
2023-03-20T23:04:30.108Z,10.16
2023-03-20T23:07:18.601Z,10.10
2023-03-20T23:09:53.266Z,10.04
2023-03-20T23:12:43.959Z,9.98
2023-03-20T23:15:25.806Z,9.91
2023-03-20T23:18:23.589Z,9.86
2023-03-20T23:21:12.600Z,9.80
2023-03-20T23:23:47.720Z,9.73
2023-03-20T23:26:35.595Z,9.66
2023-03-20T23:29:10.769Z,9.61
2023-03-20T23:31:58.620Z,9.55
2023-03-20T23:34:34.472Z,9.49
2023-03-20T23:37:22.605Z,9.45
2023-03-20T23:39:57.720Z,9.43
2023-03-20T23:42:45.606Z,9.43
2023-03-20T23:45:33.608Z,9.45
2023-03-20T23:48:14.657Z,9.48
2023-03-20T23:50:56.882Z,9.47
2023-03-20T23:53:38.806Z,9.47
2023-03-20T23:56:27.784Z,9.46
2023-03-20T23:59:11.539Z,9.43
